Accueil
METAR-TAF:

METAR-TAF

Aéroports :

Phetchabun, Thaïlande

latitude: 16-40-33N, longitude: 101-11-42E, altitude: 137 m

Observation

Le bulletin a été fait il y a 44 minutes, à 00:00 UTC
Vent 1 kt de direction variable
Température 29°C
Humidité 79%
Pression 1005 hPa
Visibilité 10 km ou plus
Quelques nuages à une hauteur de 3000 ft

METAR: VTPB 210000Z VRB01KT 9999 FEW030 29/25 Q1005 NOSIG

Heure: 07:44 (00:44 UTC)

Prévision

Le bulletin a été fait il y a 1 heure et 44 minutes, à 23:00 UTC
Prévision valable du 21 à 00 UTC au 21 à 24 UTC
Vent 5 kt de sud
Visibilité 10 km ou plus
Nuages épars à une hauteur de 3000 ft
Temporairement
du 21 à 07 UTC au 21 à 13 UTC
Quelques nuages à une hauteur de 2000 ft, Cumulonimbus.
Nuages fragmentés à une hauteur de 2500 ft
orage, pluie faible,

TAF: VTPB 202300Z 2100/2124 18005KT 9999 SCT030 TEMPO 2107/2113 -TSRA FEW020CB BKN025

Observations et prévisions météorologiques de plus de 4000 aéroports (messages METAR et TAF).

Les stations disponibles sont représentées par des disques jaunes et rouges sur la carte.

Passer la souris dessus pour voir le nom de la station.

Cliquer dessus pour voir les observations et prévisions météorologiques.

Pour changer de carte: cliquez sur les boutons verts avec une croix noire pour zoomer, sur le bouton vert avec un tiret pour effectuer un zoom arrière, ou sur les flèches vertes pour les cartes adjacentes.


METAR-TAF: